Time;durP1;ratioP1;P1;durP2;ratioP2;P2;SDS_P1;SDS_P2;PMS_P1;PMS_P2;Temp;Humidity;BMP_temperature;BMP_pressure;BME280_temperature;BME280_humidity;BME280_pressure;Samples;Min_cycle;Max_cycle;Signal;HPM_P1;HPM_P2
2022/09/09 00:01:57;;;;;;;13.68;6.53;;;;;;;;;;5081194;28;20083;-85
2022/09/09 00:04:37;;;;;;;13.98;7.15;;;;;;;;;;5078819;28;20024;-81
2022/09/09 00:07:11;;;;;;;10.80;6.47;;;;;;;;;;5080687;28;20127;-79
2022/09/09 00:09:44;;;;;;;16.23;6.75;;;;;;;;;;5073247;28;20021;-81
2022/09/09 00:12:13;;;;;;;12.73;6.72;;;;;;;;;;5077991;28;20024;-79
2022/09/09 00:14:48;;;;;;;18.10;7.75;;;;;;;;;;5070607;28;20029;-82
2022/09/09 00:17:26;;;;;;;16.33;6.68;;;;;;;;;;5076146;28;20025;-84
2022/09/09 00:20:11;;;;;;;14.38;7.25;;;;;;;;;;5068877;28;20115;-81
2022/09/09 00:22:40;;;;;;;14.07;7.20;;;;;;;;;;5073739;28;20465;-82
2022/09/09 00:25:11;;;;;;;13.70;8.02;;;;;;;;;;5078632;28;20031;-80
2022/09/09 00:27:43;;;;;;;12.32;6.93;;;;;;;;;;5076645;28;20020;-83
2022/09/09 00:30:12;;;;;;;12.48;7.18;;;;;;;;;;5079973;28;20039;-80
2022/09/09 00:32:39;;;;;;;10.40;6.93;;;;;;;;;;5081660;28;20551;-83
2022/09/09 00:35:22;;;;;;;13.27;6.85;;;;;;;;;;5081495;28;20024;-81
2022/09/09 00:37:49;;;;;;;9.60;6.32;;;;;;;;;;5078073;28;20028;-79
2022/09/09 00:40:31;;;;;;;10.93;5.60;;;;;;;;;;5071876;28;20052;-82
2022/09/09 00:43:16;;;;;;;10.85;6.38;;;;;;;;;;5076042;28;20047;-83
2022/09/09 00:45:42;;;;;;;9.48;6.00;;;;;;;;;;5075124;28;20029;-81
2022/09/09 00:48:11;;;;;;;12.45;6.32;;;;;;;;;;5077203;28;20025;-82
2022/09/09 00:50:43;;;;;;;9.13;6.35;;;;;;;;;;5087892;28;20028;-81
2022/09/09 00:53:29;;;;;;;9.20;5.75;;;;;;;;;;5077427;28;20074;-80
2022/09/09 00:55:55;;;;;;;7.85;5.65;;;;;;;;;;5072458;28;20016;-78
2022/09/09 00:58:22;;;;;;;11.05;5.50;;;;;;;;;;5070976;28;20037;-83
2022/09/09 01:00:53;;;;;;;12.05;5.32;;;;;;;;;;5077843;28;20161;-81
2022/09/09 01:03:30;;;;;;;7.18;5.75;;;;;;;;;;5079777;28;20021;-80
2022/09/09 01:06:00;;;;;;;14.30;5.80;;;;;;;;;;5074346;28;20029;-83
2022/09/09 01:08:27;;;;;;;7.90;5.57;;;;;;;;;;5072597;28;20049;-80
2022/09/09 01:10:54;;;;;;;9.13;5.20;;;;;;;;;;5073830;28;20029;-83
2022/09/09 01:13:24;;;;;;;9.23;5.25;;;;;;;;;;5076784;28;20024;-81
2022/09/09 01:15:53;;;;;;;11.75;5.88;;;;;;;;;;5078350;28;20385;-80
2022/09/09 01:18:21;;;;;;;11.45;6.18;;;;;;;;;;5072799;28;20035;-79
2022/09/09 01:21:06;;;;;;;9.48;6.13;;;;;;;;;;5079088;28;20047;-82
2022/09/09 01:23:44;;;;;;;8.23;6.45;;;;;;;;;;5074865;28;20021;-78
2022/09/09 01:26:37;;;;;;;7.57;5.35;;;;;;;;;;5077592;28;20036;-81
2022/09/09 01:29:03;;;;;;;11.50;6.70;;;;;;;;;;5072775;28;20037;-78
2022/09/09 01:31:37;;;;;;;11.27;5.63;;;;;;;;;;5089890;28;20025;-80
2022/09/09 01:34:09;;;;;;;8.50;5.68;;;;;;;;;;5071801;28;20025;-81
2022/09/09 01:36:39;;;;;;;12.60;7.53;;;;;;;;;;5084457;28;20163;-80
2022/09/09 01:39:05;;;;;;;10.32;5.82;;;;;;;;;;5072996;28;20110;-79
2022/09/09 01:41:32;;;;;;;7.70;5.55;;;;;;;;;;5076769;28;20059;-80
2022/09/09 01:43:58;;;;;;;9.80;5.93;;;;;;;;;;5078630;28;20777;-79
2022/09/09 01:46:24;;;;;;;10.65;5.78;;;;;;;;;;5078262;28;20016;-83
2022/09/09 01:48:54;;;;;;;10.95;5.15;;;;;;;;;;5073145;28;20031;-82
2022/09/09 01:51:22;;;;;;;12.27;6.82;;;;;;;;;;5074656;28;20074;-83
2022/09/09 01:53:48;;;;;;;9.73;5.80;;;;;;;;;;5066251;28;20432;-80
2022/09/09 01:56:25;;;;;;;9.38;5.38;;;;;;;;;;5082580;28;20048;-82
2022/09/09 01:58:54;;;;;;;9.32;6.75;;;;;;;;;;5071199;28;20045;-81
2022/09/09 02:01:32;;;;;;;11.85;5.97;;;;;;;;;;5075669;28;20028;-80
2022/09/09 02:04:03;;;;;;;13.55;6.20;;;;;;;;;;5071431;28;20026;-81
2022/09/09 02:06:32;;;;;;;10.77;6.00;;;;;;;;;;5078207;28;20017;-82
2022/09/09 02:08:59;;;;;;;13.88;6.45;;;;;;;;;;5075844;28;20032;-83
2022/09/09 02:11:27;;;;;;;8.75;6.45;;;;;;;;;;5077515;28;20044;-81
2022/09/09 02:13:56;;;;;;;8.63;5.85;;;;;;;;;;5074441;28;20100;-82
2022/09/09 02:16:25;;;;;;;9.60;6.38;;;;;;;;;;5068448;28;20028;-80
2022/09/09 02:19:04;;;;;;;10.90;6.30;;;;;;;;;;5067227;28;20033;-82
2022/09/09 02:21:31;;;;;;;9.20;5.93;;;;;;;;;;5071295;28;20035;-81
2022/09/09 02:23:59;;;;;;;11.60;6.90;;;;;;;;;;5071559;28;20048;-82
2022/09/09 02:26:26;;;;;;;11.23;6.00;;;;;;;;;;5076165;28;20024;-81
2022/09/09 02:28:54;;;;;;;12.75;6.93;;;;;;;;;;5078218;28;20035;-80
2022/09/09 02:31:22;;;;;;;9.23;6.18;;;;;;;;;;5073977;28;20473;-80
2022/09/09 02:33:53;;;;;;;10.90;6.45;;;;;;;;;;5083352;28;20033;-81
2022/09/09 02:36:19;;;;;;;9.00;6.18;;;;;;;;;;5072078;28;20032;-80
2022/09/09 02:38:50;;;;;;;11.98;6.82;;;;;;;;;;5072957;28;20397;-80
2022/09/09 02:41:18;;;;;;;8.93;6.55;;;;;;;;;;5074399;28;20104;-83
2022/09/09 02:43:44;;;;;;;8.73;5.65;;;;;;;;;;5078803;28;20035;-80
2022/09/09 02:46:25;;;;;;;10.25;5.82;;;;;;;;;;5075374;28;20029;-79
2022/09/09 02:49:10;;;;;;;8.52;5.78;;;;;;;;;;5077254;28;20112;-80
2022/09/09 02:51:36;;;;;;;8.77;5.85;;;;;;;;;;5069138;28;20021;-82
2022/09/09 02:54:07;;;;;;;8.95;5.88;;;;;;;;;;5074037;28;20039;-79
2022/09/09 02:56:35;;;;;;;10.63;5.45;;;;;;;;;;5078550;28;20024;-79
2022/09/09 02:59:03;;;;;;;9.27;5.40;;;;;;;;;;5074769;28;20044;-80
2022/09/09 03:01:30;;;;;;;6.28;4.80;;;;;;;;;;5076694;28;20074;-83
2022/09/09 03:03:56;;;;;;;9.18;4.85;;;;;;;;;;5077018;28;20473;-84
2022/09/09 03:06:22;;;;;;;10.57;5.38;;;;;;;;;;5066429;28;20051;-80
2022/09/09 03:08:49;;;;;;;12.68;5.53;;;;;;;;;;5064345;28;20033;-82
2022/09/09 03:11:16;;;;;;;9.95;5.35;;;;;;;;;;5069212;28;20107;-82
2022/09/09 03:13:42;;;;;;;9.68;5.10;;;;;;;;;;5061808;28;20032;-79
2022/09/09 03:16:08;;;;;;;8.43;5.82;;;;;;;;;;5076009;28;20032;-81
2022/09/09 03:18:34;;;;;;;9.05;5.32;;;;;;;;;;5076472;28;20127;-80
2022/09/09 03:21:00;;;;;;;8.90;5.15;;;;;;;;;;5073271;28;20025;-79
2022/09/09 03:23:27;;;;;;;8.45;5.30;;;;;;;;;;5076312;28;20016;-81
2022/09/09 03:25:56;;;;;;;8.07;5.15;;;;;;;;;;5075821;28;20052;-82
2022/09/09 03:28:23;;;;;;;7.47;5.40;;;;;;;;;;5072037;28;20039;-83
2022/09/09 03:30:49;;;;;;;6.60;4.90;;;;;;;;;;5067050;28;20055;-81
2022/09/09 03:33:16;;;;;;;11.73;5.82;;;;;;;;;;5093125;28;20423;-81
2022/09/09 03:35:47;;;;;;;8.45;4.95;;;;;;;;;;5076990;28;20036;-82
2022/09/09 03:38:13;;;;;;;9.32;5.07;;;;;;;;;;5072578;28;20542;-85
2022/09/09 03:40:39;;;;;;;7.57;5.45;;;;;;;;;;5070978;28;20028;-82
2022/09/09 03:43:05;;;;;;;8.43;5.45;;;;;;;;;;5076933;28;20028;-80
2022/09/09 03:45:31;;;;;;;9.38;4.57;;;;;;;;;;5077189;28;20025;-83
2022/09/09 03:47:57;;;;;;;11.68;5.75;;;;;;;;;;5073863;28;20028;-80
2022/09/09 03:50:23;;;;;;;11.43;5.70;;;;;;;;;;5072388;28;20035;-81
2022/09/09 03:52:50;;;;;;;7.25;4.60;;;;;;;;;;5076002;28;20037;-81
2022/09/09 03:55:16;;;;;;;10.52;5.35;;;;;;;;;;5079717;28;20488;-82
2022/09/09 03:57:42;;;;;;;9.25;5.07;;;;;;;;;;5078771;28;20133;-81
2022/09/09 04:00:09;;;;;;;6.45;4.90;;;;;;;;;;5076250;28;20080;-79
2022/09/09 04:02:35;;;;;;;7.97;5.20;;;;;;;;;;5081706;28;20020;-81
2022/09/09 04:05:01;;;;;;;10.98;5.32;;;;;;;;;;5076170;28;20025;-79
2022/09/09 04:07:27;;;;;;;10.18;5.68;;;;;;;;;;5080286;28;20017;-81
2022/09/09 04:09:54;;;;;;;7.18;5.07;;;;;;;;;;5077342;28;20021;-83
2022/09/09 04:12:20;;;;;;;7.40;4.45;;;;;;;;;;5079964;28;20024;-84
2022/09/09 04:14:47;;;;;;;8.35;4.70;;;;;;;;;;5073088;28;20021;-81
2022/09/09 04:17:13;;;;;;;6.93;4.78;;;;;;;;;;5072272;28;20410;-81
2022/09/09 04:19:39;;;;;;;8.20;4.68;;;;;;;;;;5071601;28;20087;-84
2022/09/09 04:22:06;;;;;;;9.38;5.00;;;;;;;;;;5078955;28;20063;-80
2022/09/09 04:24:32;;;;;;;5.60;4.03;;;;;;;;;;5069905;28;20628;-79
2022/09/09 04:26:59;;;;;;;8.65;4.50;;;;;;;;;;5071237;28;20033;-80
2022/09/09 04:29:25;;;;;;;8.55;4.85;;;;;;;;;;5078243;28;20077;-79
2022/09/09 04:31:51;;;;;;;7.93;5.13;;;;;;;;;;5069922;28;20031;-79
2022/09/09 04:34:17;;;;;;;9.40;4.68;;;;;;;;;;5077693;28;20404;-80
2022/09/09 04:36:43;;;;;;;6.47;4.88;;;;;;;;;;5079004;28;20056;-78
2022/09/09 04:39:09;;;;;;;5.72;3.97;;;;;;;;;;5077985;28;20032;-82
2022/09/09 04:41:35;;;;;;;7.95;4.32;;;;;;;;;;5079194;28;20111;-78
2022/09/09 04:44:02;;;;;;;9.05;4.93;;;;;;;;;;5077434;28;20024;-77
2022/09/09 04:46:28;;;;;;;8.43;4.78;;;;;;;;;;5066088;28;20029;-80
2022/09/09 04:48:55;;;;;;;9.90;5.03;;;;;;;;;;5093294;28;20045;-80
2022/09/09 04:51:21;;;;;;;8.07;4.70;;;;;;;;;;5073871;28;20036;-79
2022/09/09 04:53:48;;;;;;;8.38;5.25;;;;;;;;;;5076298;28;20031;-78
2022/09/09 04:56:15;;;;;;;9.50;4.45;;;;;;;;;;5070712;28;20362;-78
2022/09/09 04:58:45;;;;;;;6.65;4.93;;;;;;;;;;5080805;28;20029;-79
2022/09/09 05:01:18;;;;;;;11.05;5.65;;;;;;;;;;5072811;28;20055;-78
2022/09/09 05:03:47;;;;;;;11.25;5.32;;;;;;;;;;5086186;28;20054;-80
2022/09/09 05:06:18;;;;;;;6.45;5.32;;;;;;;;;;5075583;28;20375;-81
2022/09/09 05:08:44;;;;;;;6.57;4.40;;;;;;;;;;5072351;28;20023;-79
2022/09/09 05:11:29;;;;;;;9.70;5.40;;;;;;;;;;5067100;28;20067;-81
2022/09/09 05:13:56;;;;;;;9.10;5.03;;;;;;;;;;5074245;28;20054;-78
2022/09/09 05:16:22;;;;;;;11.85;5.70;;;;;;;;;;5072778;28;20028;-76
2022/09/09 05:18:51;;;;;;;8.45;4.72;;;;;;;;;;5079244;28;20028;-79
2022/09/09 05:21:17;;;;;;;10.40;4.22;;;;;;;;;;5087835;28;20021;-81
2022/09/09 05:23:45;;;;;;;7.22;4.30;;;;;;;;;;5074814;28;20377;-79
2022/09/09 05:26:15;;;;;;;6.40;4.65;;;;;;;;;;5075740;28;20032;-80
2022/09/09 05:28:41;;;;;;;9.60;4.63;;;;;;;;;;5077321;28;20068;-81
2022/09/09 05:31:09;;;;;;;7.15;4.40;;;;;;;;;;5078800;28;20052;-80
2022/09/09 05:33:35;;;;;;;6.82;4.30;;;;;;;;;;5074867;28;20055;-79
2022/09/09 05:36:13;;;;;;;8.52;4.32;;;;;;;;;;5077999;28;20038;-80
2022/09/09 05:38:40;;;;;;;7.82;4.53;;;;;;;;;;5073926;28;20039;-81
2022/09/09 05:41:06;;;;;;;8.20;5.35;;;;;;;;;;5084639;28;20415;-80
2022/09/09 05:43:35;;;;;;;8.75;4.43;;;;;;;;;;5075962;28;20028;-79
2022/09/09 05:46:06;;;;;;;9.98;3.70;;;;;;;;;;5065491;28;20025;-78
2022/09/09 05:48:33;;;;;;;6.43;4.00;;;;;;;;;;5079011;28;20036;-80
2022/09/09 05:50:59;;;;;;;6.07;4.10;;;;;;;;;;5076835;28;20041;-80
2022/09/09 05:53:33;;;;;;;8.90;3.83;;;;;;;;;;5076428;28;20020;-77
2022/09/09 05:56:03;;;;;;;7.65;3.90;;;;;;;;;;5078861;28;20473;-79
2022/09/09 05:58:29;;;;;;;5.88;4.13;;;;;;;;;;5064990;28;20456;-78
2022/09/09 06:01:01;;;;;;;8.27;3.78;;;;;;;;;;5076953;28;20138;-78
2022/09/09 06:03:27;;;;;;;7.65;3.92;;;;;;;;;;5077687;28;20028;-79
2022/09/09 06:06:01;;;;;;;10.48;4.40;;;;;;;;;;5075800;28;20033;-78
2022/09/09 06:08:27;;;;;;;6.90;4.43;;;;;;;;;;5077441;28;20032;-78
2022/09/09 06:10:53;;;;;;;5.50;3.78;;;;;;;;;;5073482;28;20024;-78
2022/09/09 06:13:19;;;;;;;5.47;3.90;;;;;;;;;;5083996;28;20314;-84
2022/09/09 06:15:52;;;;;;;5.68;3.65;;;;;;;;;;5069462;28;20025;-81
2022/09/09 06:18:18;;;;;;;7.47;4.35;;;;;;;;;;5071926;28;20035;-80
2022/09/09 06:21:03;;;;;;;5.70;3.75;;;;;;;;;;5075028;28;20094;-80
2022/09/09 06:23:29;;;;;;;4.70;4.07;;;;;;;;;;5077660;28;20074;-79
2022/09/09 06:26:05;;;;;;;5.13;3.90;;;;;;;;;;5072433;28;20028;-80
2022/09/09 06:28:35;;;;;;;5.53;3.63;;;;;;;;;;5076361;28;20378;-77
2022/09/09 06:31:02;;;;;;;10.00;3.60;;;;;;;;;;5074087;28;20029;-79
2022/09/09 06:33:31;;;;;;;5.05;3.40;;;;;;;;;;5074233;28;20120;-78
2022/09/09 06:35:57;;;;;;;4.30;3.50;;;;;;;;;;5082326;28;20077;-81
2022/09/09 06:38:24;;;;;;;4.95;4.20;;;;;;;;;;5070036;28;20032;-79
2022/09/09 06:40:52;;;;;;;6.88;3.90;;;;;;;;;;5078252;28;20119;-82
2022/09/09 06:43:19;;;;;;;5.90;3.42;;;;;;;;;;5076795;28;20025;-78
2022/09/09 06:45:53;;;;;;;5.18;3.33;;;;;;;;;;5077165;28;20020;-77
2022/09/09 06:48:19;;;;;;;4.95;3.30;;;;;;;;;;5072020;28;20851;-78
2022/09/09 06:50:46;;;;;;;3.45;3.15;;;;;;;;;;5075735;28;20020;-78
2022/09/09 06:53:12;;;;;;;3.95;2.67;;;;;;;;;;5072136;28;20029;-79
2022/09/09 06:55:40;;;;;;;3.70;3.17;;;;;;;;;;5077428;28;20089;-79
2022/09/09 06:58:09;;;;;;;3.92;3.00;;;;;;;;;;5074655;28;20032;-80
2022/09/09 07:00:37;;;;;;;4.40;2.90;;;;;;;;;;5076217;28;20119;-78
2022/09/09 07:03:04;;;;;;;4.13;3.17;;;;;;;;;;5073713;28;20078;-78
2022/09/09 07:05:30;;;;;;;4.45;3.20;;;;;;;;;;5071475;28;20076;-79
2022/09/09 07:07:56;;;;;;;3.33;2.65;;;;;;;;;;5073795;28;20051;-79
2022/09/09 07:10:22;;;;;;;5.10;2.80;;;;;;;;;;5072467;28;20535;-79
2022/09/09 07:12:52;;;;;;;4.18;2.88;;;;;;;;;;5069844;28;20086;-78
2022/09/09 07:15:19;;;;;;;3.80;3.17;;;;;;;;;;5076622;28;20032;-78
2022/09/09 07:17:45;;;;;;;4.05;3.08;;;;;;;;;;5073153;28;20084;-78
2022/09/09 07:20:12;;;;;;;6.50;3.40;;;;;;;;;;5076276;28;20076;-80
2022/09/09 07:22:38;;;;;;;5.38;3.63;;;;;;;;;;5070705;28;20048;-80
2022/09/09 07:25:05;;;;;;;3.78;2.85;;;;;;;;;;5076017;28;20025;-78
2022/09/09 07:27:31;;;;;;;4.53;3.13;;;;;;;;;;5089303;28;20028;-80
2022/09/09 07:29:57;;;;;;;3.17;2.83;;;;;;;;;;5081360;28;20033;-78
2022/09/09 07:32:25;;;;;;;3.67;3.10;;;;;;;;;;5078915;28;20488;-78
2022/09/09 07:34:51;;;;;;;3.50;3.20;;;;;;;;;;5081534;28;20032;-78
2022/09/09 07:37:17;;;;;;;3.33;2.88;;;;;;;;;;5069667;28;20047;-80
2022/09/09 07:39:44;;;;;;;5.55;3.00;;;;;;;;;;5078643;28;20024;-80
2022/09/09 07:42:11;;;;;;;6.18;3.05;;;;;;;;;;5077263;28;20025;-80
2022/09/09 07:44:39;;;;;;;3.17;2.70;;;;;;;;;;5080705;28;20013;-79
2022/09/09 07:47:05;;;;;;;3.38;3.00;;;;;;;;;;5078919;28;20119;-79
2022/09/09 07:49:32;;;;;;;5.10;3.40;;;;;;;;;;5078258;28;20025;-79
2022/09/09 07:51:58;;;;;;;4.07;3.20;;;;;;;;;;5071950;28;20051;-81
2022/09/09 07:54:25;;;;;;;3.72;3.10;;;;;;;;;;5082595;28;20097;-79
2022/09/09 07:56:52;;;;;;;7.45;3.38;;;;;;;;;;5081016;28;20024;-78
2022/09/09 07:59:18;;;;;;;3.95;3.20;;;;;;;;;;5078751;28;20040;-78
2022/09/09 08:01:46;;;;;;;6.82;3.55;;;;;;;;;;5078506;28;20025;-81
2022/09/09 08:04:17;;;;;;;4.38;3.70;;;;;;;;;;5078099;28;20021;-81
2022/09/09 08:06:44;;;;;;;4.18;3.53;;;;;;;;;;5074983;28;20032;-79
2022/09/09 08:09:11;;;;;;;4.05;3.65;;;;;;;;;;5078413;28;20106;-79
2022/09/09 08:11:38;;;;;;;5.53;4.00;;;;;;;;;;5078568;28;20054;-78
2022/09/09 08:14:05;;;;;;;5.90;3.95;;;;;;;;;;5074056;28;20020;-81
2022/09/09 08:16:32;;;;;;;4.22;3.83;;;;;;;;;;5085134;28;20020;-78
2022/09/09 08:18:59;;;;;;;4.97;3.80;;;;;;;;;;5081987;28;20042;-78
2022/09/09 08:21:27;;;;;;;5.03;3.63;;;;;;;;;;5102040;28;20039;-84
2022/09/09 08:23:54;;;;;;;5.30;3.75;;;;;;;;;;5078613;28;20050;-80
2022/09/09 08:26:22;;;;;;;4.22;3.83;;;;;;;;;;5082720;28;20017;-79
2022/09/09 08:28:50;;;;;;;6.13;4.30;;;;;;;;;;5082068;28;20025;-79
2022/09/09 08:31:17;;;;;;;3.97;3.25;;;;;;;;;;5081208;28;20021;-79
2022/09/09 08:33:45;;;;;;;4.97;3.63;;;;;;;;;;5084082;28;20512;-79
2022/09/09 08:36:16;;;;;;;3.92;3.30;;;;;;;;;;5084038;28;20110;-79
2022/09/09 08:38:43;;;;;;;4.53;3.72;;;;;;;;;;5077626;28;20093;-79
2022/09/09 08:41:28;;;;;;;6.00;3.72;;;;;;;;;;5080640;28;20088;-77
2022/09/09 08:44:14;;;;;;;6.72;3.70;;;;;;;;;;5082292;28;20024;-82
2022/09/09 08:46:51;;;;;;;5.30;3.83;;;;;;;;;;5081142;28;20035;-78
2022/09/09 08:49:30;;;;;;;6.20;3.75;;;;;;;;;;5083167;28;20380;-80
2022/09/09 08:51:57;;;;;;;4.97;3.58;;;;;;;;;;5072586;28;20036;-77
2022/09/09 08:54:23;;;;;;;5.57;3.70;;;;;;;;;;5079024;28;20469;-77
2022/09/09 08:56:50;;;;;;;9.45;3.80;;;;;;;;;;5078176;28;20055;-77
2022/09/09 08:59:20;;;;;;;5.28;3.75;;;;;;;;;;5068931;28;20055;-77
2022/09/09 09:01:55;;;;;;;5.03;4.05;;;;;;;;;;5081745;28;20026;-76
2022/09/09 09:04:22;;;;;;;;;;;;;;;;;;5080558;28;20020;-79
2022/09/09 09:07:08;;;;;;;5.07;3.33;;;;;;;;;;5082347;28;19975;-78
2022/09/09 09:09:34;;;;;;;;;;;;;;;;;;5098806;28;20020;-77
2022/09/09 09:12:02;;;;;;;6.45;4.07;;;;;;;;;;5081410;28;20026;-79
2022/09/09 09:14:34;;;;;;;4.85;3.55;;;;;;;;;;5082496;28;20028;-80
2022/09/09 09:17:03;;;;;;;5.93;3.65;;;;;;;;;;5078996;28;20162;-80
2022/09/09 09:19:30;;;;;;;6.07;3.78;;;;;;;;;;5079900;28;20031;-77
2022/09/09 09:22:17;;;;;;;7.18;3.38;;;;;;;;;;5082073;28;20021;-79
2022/09/09 09:24:43;;;;;;;6.00;3.50;;;;;;;;;;5077264;28;20030;-80
2022/09/09 09:27:13;;;;;;;6.22;3.20;;;;;;;;;;5085607;28;20028;-78
2022/09/09 09:29:40;;;;;;;5.30;3.78;;;;;;;;;;5079986;28;20071;-79
2022/09/09 09:32:08;;;;;;;4.85;3.40;;;;;;;;;;5084072;28;20012;-79
2022/09/09 09:34:34;;;;;;;3.30;3.00;;;;;;;;;;5079857;28;20731;-77
2022/09/09 09:37:04;;;;;;;5.10;3.30;;;;;;;;;;5081434;28;20032;-78
2022/09/09 09:39:39;;;;;;;3.88;3.17;;;;;;;;;;5080999;28;20025;-76
2022/09/09 09:42:17;;;;;;;5.32;3.53;;;;;;;;;;5081160;28;20020;-77
2022/09/09 09:44:44;;;;;;;5.55;3.25;;;;;;;;;;5083571;28;20021;-77
2022/09/09 09:47:13;;;;;;;5.32;3.10;;;;;;;;;;5078817;28;20031;-76
2022/09/09 09:49:39;;;;;;;3.15;2.85;;;;;;;;;;5080765;28;20028;-79
2022/09/09 09:52:09;;;;;;;3.20;2.85;;;;;;;;;;5096230;28;20020;-77
2022/09/09 09:54:40;;;;;;;4.70;3.05;;;;;;;;;;5076515;28;20508;-77
2022/09/09 09:57:13;;;;;;;3.78;2.80;;;;;;;;;;5081633;28;20066;-77
2022/09/09 09:59:40;;;;;;;3.92;2.95;;;;;;;;;;5076148;28;20040;-77
2022/09/09 10:02:27;;;;;;;4.70;2.95;;;;;;;;;;5087605;28;20369;-78
2022/09/09 10:05:11;;;;;;;3.75;2.67;;;;;;;;;;5085221;28;20021;-77
2022/09/09 10:07:38;;;;;;;5.70;2.90;;;;;;;;;;5082688;28;20020;-78
2022/09/09 10:10:05;;;;;;;4.05;2.63;;;;;;;;;;5078154;28;20036;-78
2022/09/09 10:12:50;;;;;;;4.57;2.65;;;;;;;;;;5078491;28;20032;-77
2022/09/09 10:15:25;;;;;;;4.55;2.45;;;;;;;;;;5077480;28;20105;-77
2022/09/09 10:18:04;;;;;;;2.75;2.45;;;;;;;;;;5071657;28;20036;-77
2022/09/09 10:20:30;;;;;;;2.90;2.50;;;;;;;;;;5076407;28;20028;-77
2022/09/09 10:23:06;;;;;;;2.65;2.30;;;;;;;;;;5076763;28;20058;-80
2022/09/09 10:25:37;;;;;;;2.85;2.20;;;;;;;;;;5079443;28;20027;-79
2022/09/09 10:28:03;;;;;;;4.45;2.42;;;;;;;;;;5075894;28;20465;-79
2022/09/09 10:30:35;;;;;;;3.92;2.55;;;;;;;;;;5075888;28;20043;-77
2022/09/09 10:33:14;;;;;;;4.57;3.22;;;;;;;;;;5075371;28;20146;-77
2022/09/09 10:35:52;;;;;;;3.42;2.90;;;;;;;;;;5076128;28;20028;-76
2022/09/09 10:38:25;;;;;;;4.38;3.20;;;;;;;;;;5083170;28;20074;-79
2022/09/09 10:40:52;;;;;;;4.55;3.45;;;;;;;;;;5081622;28;20043;-78
2022/09/09 10:43:22;;;;;;;4.10;3.30;;;;;;;;;;5075805;28;20028;-79
2022/09/09 10:45:48;;;;;;;4.28;3.78;;;;;;;;;;5078550;28;20468;-77
2022/09/09 10:48:20;;;;;;;6.32;3.78;;;;;;;;;;5080135;28;20032;-77
2022/09/09 10:50:47;;;;;;;4.55;3.38;;;;;;;;;;5075218;28;20127;-77
2022/09/09 10:53:25;;;;;;;6.57;3.78;;;;;;;;;;5072158;28;20043;-76
2022/09/09 10:56:00;;;;;;;3.90;2.97;;;;;;;;;;5074821;28;20039;-76
2022/09/09 10:58:34;;;;;;;5.05;3.63;;;;;;;;;;5078201;28;20359;-79
2022/09/09 11:01:03;;;;;;;5.50;2.67;;;;;;;;;;5077974;28;20067;-78
2022/09/09 11:03:30;;;;;;;3.13;2.30;;;;;;;;;;5094406;28;20196;-78
2022/09/09 11:05:58;;;;;;;3.30;2.25;;;;;;;;;;5083557;28;20020;-78
2022/09/09 11:08:26;;;;;;;3.08;2.20;;;;;;;;;;5078453;28;20017;-77
2022/09/09 11:11:07;;;;;;;2.40;2.10;;;;;;;;;;5081717;28;20095;-77
2022/09/09 11:13:39;;;;;;;3.30;2.20;;;;;;;;;;5081717;28;20157;-77
2022/09/09 11:16:25;;;;;;;3.00;2.05;;;;;;;;;;5079819;28;20114;-77
2022/09/09 11:18:56;;;;;;;2.20;1.83;;;;;;;;;;5079638;28;20044;-77
2022/09/09 11:21:26;;;;;;;2.10;1.90;;;;;;;;;;5074842;28;20089;-77
2022/09/09 11:23:58;;;;;;;2.45;1.92;;;;;;;;;;5082982;28;20044;-77
2022/09/09 11:26:54;;;;;;;2.13;1.75;;;;;;;;;;5075681;28;20082;-77
2022/09/09 11:29:38;;;;;;;2.10;1.90;;;;;;;;;;5065606;28;20037;-77
2022/09/09 11:32:04;;;;;;;1.73;1.60;;;;;;;;;;5079641;28;20032;-77
2022/09/09 11:34:49;;;;;;;3.45;2.13;;;;;;;;;;5080804;28;20032;-77
2022/09/09 11:37:26;;;;;;;1.73;1.63;;;;;;;;;;5079363;28;20029;-76
2022/09/09 11:39:59;;;;;;;1.70;1.60;;;;;;;;;;5078957;28;20068;-76
2022/09/09 11:42:25;;;;;;;1.95;1.75;;;;;;;;;;5078625;28;20111;-76
2022/09/09 11:44:53;;;;;;;2.72;1.80;;;;;;;;;;5078018;28;20054;-76
2022/09/09 11:47:31;;;;;;;1.77;1.60;;;;;;;;;;5084139;28;20028;-76
2022/09/09 11:50:15;;;;;;;2.63;1.80;;;;;;;;;;5096672;28;20388;-76
2022/09/09 11:52:45;;;;;;;1.73;1.60;;;;;;;;;;5071882;28;20034;-77
2022/09/09 11:55:32;;;;;;;2.33;1.98;;;;;;;;;;5077533;28;20090;-77
2022/09/09 11:58:06;;;;;;;1.70;1.60;;;;;;;;;;5073472;28;20698;-76
2022/09/09 12:00:37;;;;;;;1.55;1.45;;;;;;;;;;5074584;28;20790;-76
2022/09/09 12:03:03;;;;;;;1.83;1.70;;;;;;;;;;5077511;28;20020;-77
2022/09/09 12:05:41;;;;;;;1.92;1.70;;;;;;;;;;5077056;28;20091;-76
2022/09/09 12:08:09;;;;;;;2.22;1.88;;;;;;;;;;5075986;28;20016;-77
2022/09/09 12:10:53;;;;;;;1.90;1.80;;;;;;;;;;5078108;28;20024;-76
2022/09/09 12:13:21;;;;;;;2.35;1.60;;;;;;;;;;5077625;28;20554;-76
2022/09/09 12:15:51;;;;;;;1.70;1.60;;;;;;;;;;5074961;28;20044;-77
2022/09/09 12:18:37;;;;;;;2.60;1.60;;;;;;;;;;5073015;28;20028;-76
2022/09/09 12:21:33;;;;;;;2.47;1.70;;;;;;;;;;5074840;28;20063;-77
2022/09/09 12:24:03;;;;;;;1.60;1.50;;;;;;;;;;5070850;28;20100;-76
2022/09/09 12:26:53;;;;;;;1.70;1.60;;;;;;;;;;5072423;28;20036;-77
2022/09/09 12:29:19;;;;;;;3.15;1.90;;;;;;;;;;5080648;28;20024;-77
2022/09/09 12:31:54;;;;;;;2.10;1.95;;;;;;;;;;5076718;28;20032;-77
2022/09/09 12:34:38;;;;;;;1.60;1.50;;;;;;;;;;5076509;28;20038;-77
2022/09/09 12:37:06;;;;;;;1.80;1.70;;;;;;;;;;5091406;28;20104;-77
2022/09/09 12:39:38;;;;;;;1.90;1.80;;;;;;;;;;5081407;28;20082;-76
2022/09/09 12:42:04;;;;;;;2.83;1.80;;;;;;;;;;5083772;28;20028;-77
2022/09/09 12:44:32;;;;;;;1.58;1.48;;;;;;;;;;5085506;28;20124;-76
2022/09/09 12:47:00;;;;;;;1.70;1.50;;;;;;;;;;5083355;28;20016;-77
2022/09/09 12:49:36;;;;;;;3.13;1.98;;;;;;;;;;5082882;28;20024;-77
2022/09/09 12:52:29;;;;;;;1.90;1.80;;;;;;;;;;5049612;28;20433;-78
2022/09/09 12:54:56;;;;;;;1.73;1.58;;;;;;;;;;5078163;28;20087;-77
2022/09/09 12:57:25;;;;;;;2.80;1.73;;;;;;;;;;5079589;28;20029;-77
2022/09/09 12:59:53;;;;;;;2.10;1.90;;;;;;;;;;5024037;28;1618203;-77
2022/09/09 13:02:20;;;;;;;3.78;1.70;;;;;;;;;;5074918;28;20089;-77
2022/09/09 13:04:46;;;;;;;1.63;1.50;;;;;;;;;;5077717;28;20029;-76
2022/09/09 13:07:13;;;;;;;2.10;1.88;;;;;;;;;;5082283;28;20480;-77
2022/09/09 13:09:40;;;;;;;2.72;2.42;;;;;;;;;;5076773;28;20115;-77
2022/09/09 13:12:13;;;;;;;2.90;2.00;;;;;;;;;;5081906;28;20024;-77
2022/09/09 13:14:39;;;;;;;4.07;2.03;;;;;;;;;;5077824;28;20024;-76
2022/09/09 13:17:06;;;;;;;2.67;2.10;;;;;;;;;;5080228;28;20032;-76
2022/09/09 13:19:39;;;;;;;4.07;2.35;;;;;;;;;;5080938;28;20083;-77
2022/09/09 13:22:13;;;;;;;2.83;2.20;;;;;;;;;;5080999;28;20034;-77
2022/09/09 13:24:39;;;;;;;2.50;2.20;;;;;;;;;;5081353;28;20230;-76
2022/09/09 13:27:25;;;;;;;3.22;2.20;;;;;;;;;;5081238;28;20115;-77
2022/09/09 13:29:55;;;;;;;2.67;2.47;;;;;;;;;;5082544;28;20033;-76
2022/09/09 13:32:21;;;;;;;2.83;2.20;;;;;;;;;;5083975;28;20047;-77
2022/09/09 13:34:58;;;;;;;3.95;2.08;;;;;;;;;;5080955;28;20055;-77
2022/09/09 13:37:42;;;;;;;2.65;2.17;;;;;;;;;;5079514;28;20028;-77
2022/09/09 13:40:18;;;;;;;2.60;2.33;;;;;;;;;;5083056;28;20043;-77
2022/09/09 13:42:45;;;;;;;2.30;2.10;;;;;;;;;;5081459;28;20391;-77
2022/09/09 13:45:26;;;;;;;2.78;2.17;;;;;;;;;;5079927;28;20028;-78
2022/09/09 13:47:55;;;;;;;3.85;2.10;;;;;;;;;;5078207;28;20592;-80
2022/09/09 13:50:21;;;;;;;4.10;2.90;;;;;;;;;;5081327;28;20120;-79
2022/09/09 13:52:54;;;;;;;2.80;2.00;;;;;;;;;;5080902;28;20024;-80
2022/09/09 13:55:22;;;;;;;2.35;2.00;;;;;;;;;;5084165;28;20039;-79
2022/09/09 13:58:01;;;;;;;4.05;1.98;;;;;;;;;;5082451;28;20504;-79
2022/09/09 14:00:29;;;;;;;2.05;1.85;;;;;;;;;;5082698;28;20056;-78
2022/09/09 14:02:55;;;;;;;1.95;1.80;;;;;;;;;;5082832;28;20406;-78
2022/09/09 14:05:22;;;;;;;2.97;1.90;;;;;;;;;;5082539;28;20020;-78
2022/09/09 14:07:48;;;;;;;2.50;2.08;;;;;;;;;;5083518;28;20099;-79
2022/09/09 14:10:15;;;;;;;2.20;1.80;;;;;;;;;;5080095;28;20046;-79
2022/09/09 14:12:41;;;;;;;2.78;1.88;;;;;;;;;;5081260;28;20074;-81
2022/09/09 14:15:08;;;;;;;4.53;1.88;;;;;;;;;;5075966;28;20054;-79
2022/09/09 14:17:35;;;;;;;2.05;1.80;;;;;;;;;;5081050;28;20055;-82
2022/09/09 14:20:03;;;;;;;2.03;1.85;;;;;;;;;;5085223;28;20035;-81
2022/09/09 14:22:31;;;;;;;3.85;1.90;;;;;;;;;;5086537;28;20414;-80
2022/09/09 14:24:57;;;;;;;1.88;1.58;;;;;;;;;;5077700;28;20025;-80
2022/09/09 14:27:25;;;;;;;3.63;2.33;;;;;;;;;;5082065;28;20117;-79
2022/09/09 14:29:52;;;;;;;3.67;2.03;;;;;;;;;;5081517;28;20012;-79
2022/09/09 14:32:18;;;;;;;2.55;1.70;;;;;;;;;;5083715;28;20032;-79
2022/09/09 14:34:49;;;;;;;2.88;1.67;;;;;;;;;;5087585;28;20019;-86
2022/09/09 14:37:16;;;;;;;4.22;1.65;;;;;;;;;;5081152;28;20071;-81
2022/09/09 14:39:43;;;;;;;2.28;1.30;;;;;;;;;;5089339;28;20012;-80
2022/09/09 14:42:10;;;;;;;1.63;1.52;;;;;;;;;;5082700;28;20037;-79
2022/09/09 14:44:40;;;;;;;1.70;1.45;;;;;;;;;;5083381;28;20027;-79
2022/09/09 14:47:10;;;;;;;1.40;1.30;;;;;;;;;;5081346;28;20054;-81
2022/09/09 14:49:36;;;;;;;1.58;1.48;;;;;;;;;;5074081;28;20028;-78
2022/09/09 14:52:03;;;;;;;2.28;1.45;;;;;;;;;;5082281;28;20024;-81
2022/09/09 14:54:29;;;;;;;1.60;1.50;;;;;;;;;;5082385;28;20033;-79
2022/09/09 14:56:56;;;;;;;2.03;1.67;;;;;;;;;;5079245;28;20028;-80
2022/09/09 14:59:22;;;;;;;2.47;1.70;;;;;;;;;;5078286;28;20043;-79